sensor_id;sensor_type;location;lat;lon;timestamp;temperature;humidity
4187;DHT22;2107;52.306;10.484;2022-09-09T00:02:18;13.50;99.90
4187;DHT22;2107;52.306;10.484;2022-09-09T00:04:52;13.50;99.90
4187;DHT22;2107;52.306;10.484;2022-09-09T00:07:27;13.50;99.90
4187;DHT22;2107;52.306;10.484;2022-09-09T00:10:04;13.50;99.90
4187;DHT22;2107;52.306;10.484;2022-09-09T00:12:42;13.50;99.90
4187;DHT22;2107;52.306;10.484;2022-09-09T00:15:13;13.50;99.90
4187;DHT22;2107;52.306;10.484;2022-09-09T00:17:45;13.60;99.90
4187;DHT22;2107;52.306;10.484;2022-09-09T00:20:19;13.60;99.90
4187;DHT22;2107;52.306;10.484;2022-09-09T00:22:55;13.50;99.90
4187;DHT22;2107;52.306;10.484;2022-09-09T00:25:29;13.50;99.90
4187;DHT22;2107;52.306;10.484;2022-09-09T00:27:59;13.60;99.90
4187;DHT22;2107;52.306;10.484;2022-09-09T00:30:29;13.60;99.90
4187;DHT22;2107;52.306;10.484;2022-09-09T00:32:59;13.60;99.90
4187;DHT22;2107;52.306;10.484;2022-09-09T00:35:29;13.60;99.90
4187;DHT22;2107;52.306;10.484;2022-09-09T00:38:03;13.60;99.90
4187;DHT22;2107;52.306;10.484;2022-09-09T00:40:34;13.60;99.90
4187;DHT22;2107;52.306;10.484;2022-09-09T00:43:13;13.50;99.90
4187;DHT22;2107;52.306;10.484;2022-09-09T00:48:49;13.50;99.90
4187;DHT22;2107;52.306;10.484;2022-09-09T00:51:25;13.50;99.90
4187;DHT22;2107;52.306;10.484;2022-09-09T00:54:12;13.50;99.90
4187;DHT22;2107;52.306;10.484;2022-09-09T00:56:47;13.50;99.90
4187;DHT22;2107;52.306;10.484;2022-09-09T00:59:25;13.50;99.90
4187;DHT22;2107;52.306;10.484;2022-09-09T01:01:54;13.50;99.90
4187;DHT22;2107;52.306;10.484;2022-09-09T01:04:29;13.50;99.90
4187;DHT22;2107;52.306;10.484;2022-09-09T01:07:04;13.50;99.90
4187;DHT22;2107;52.306;10.484;2022-09-09T01:09:51;13.50;99.90
4187;DHT22;2107;52.306;10.484;2022-09-09T01:12:25;13.50;99.90
4187;DHT22;2107;52.306;10.484;2022-09-09T01:15:00;13.60;99.90
4187;DHT22;2107;52.306;10.484;2022-09-09T01:17:31;13.60;99.90
4187;DHT22;2107;52.306;10.484;2022-09-09T01:20:05;13.50;99.90
4187;DHT22;2107;52.306;10.484;2022-09-09T01:22:36;13.50;99.90
4187;DHT22;2107;52.306;10.484;2022-09-09T01:25:56;13.40;99.90
4187;DHT22;2107;52.306;10.484;2022-09-09T01:28:31;13.40;99.90
4187;DHT22;2107;52.306;10.484;2022-09-09T01:31:02;13.40;99.90
4187;DHT22;2107;52.306;10.484;2022-09-09T01:33:29;13.40;99.90
4187;DHT22;2107;52.306;10.484;2022-09-09T01:35:59;13.40;99.90
4187;DHT22;2107;52.306;10.484;2022-09-09T01:38:28;13.20;99.90
4187;DHT22;2107;52.306;10.484;2022-09-09T01:40:56;13.20;99.90
4187;DHT22;2107;52.306;10.484;2022-09-09T01:43:25;13.20;99.90
4187;DHT22;2107;52.306;10.484;2022-09-09T01:45:54;13.20;99.90
4187;DHT22;2107;52.306;10.484;2022-09-09T01:48:22;13.20;99.90
4187;DHT22;2107;52.306;10.484;2022-09-09T01:50:50;13.10;99.90
4187;DHT22;2107;52.306;10.484;2022-09-09T01:53:18;13.20;99.90
4187;DHT22;2107;52.306;10.484;2022-09-09T01:55:56;13.10;99.90
4187;DHT22;2107;52.306;10.484;2022-09-09T01:58:34;13.10;99.90
4187;DHT22;2107;52.306;10.484;2022-09-09T02:01:08;13.10;99.90
4187;DHT22;2107;52.306;10.484;2022-09-09T02:03:46;13.30;99.90
4187;DHT22;2107;52.306;10.484;2022-09-09T02:06:21;13.30;99.90
4187;DHT22;2107;52.306;10.484;2022-09-09T02:08:52;13.30;99.90
4187;DHT22;2107;52.306;10.484;2022-09-09T02:11:22;13.30;99.90
4187;DHT22;2107;52.306;10.484;2022-09-09T02:13:54;13.30;99.90
4187;DHT22;2107;52.306;10.484;2022-09-09T02:16:26;13.20;99.90
4187;DHT22;2107;52.306;10.484;2022-09-09T02:18:57;13.20;99.90
4187;DHT22;2107;52.306;10.484;2022-09-09T02:21:28;13.30;99.90
4187;DHT22;2107;52.306;10.484;2022-09-09T02:23:58;13.20;99.90
4187;DHT22;2107;52.306;10.484;2022-09-09T02:26:26;13.30;99.90
4187;DHT22;2107;52.306;10.484;2022-09-09T02:28:57;13.30;99.90
4187;DHT22;2107;52.306;10.484;2022-09-09T02:31:26;13.30;99.90
4187;DHT22;2107;52.306;10.484;2022-09-09T02:33:56;13.30;99.90
4187;DHT22;2107;52.306;10.484;2022-09-09T02:36:26;13.30;99.90
4187;DHT22;2107;52.306;10.484;2022-09-09T02:38:54;13.30;99.90
4187;DHT22;2107;52.306;10.484;2022-09-09T02:41:28;13.30;99.90
4187;DHT22;2107;52.306;10.484;2022-09-09T02:43:58;13.30;99.90
4187;DHT22;2107;52.306;10.484;2022-09-09T02:46:36;13.30;99.90
4187;DHT22;2107;52.306;10.484;2022-09-09T02:49:10;13.40;99.90
4187;DHT22;2107;52.306;10.484;2022-09-09T02:51:45;13.30;99.90
4187;DHT22;2107;52.306;10.484;2022-09-09T02:54:20;13.30;99.90
4187;DHT22;2107;52.306;10.484;2022-09-09T02:56:53;13.30;99.90
4187;DHT22;2107;52.306;10.484;2022-09-09T02:59:25;13.20;99.90
4187;DHT22;2107;52.306;10.484;2022-09-09T03:01:52;13.30;99.90
4187;DHT22;2107;52.306;10.484;2022-09-09T03:04:19;13.20;99.90
4187;DHT22;2107;52.306;10.484;2022-09-09T03:06:47;13.20;99.90
4187;DHT22;2107;52.306;10.484;2022-09-09T03:09:14;13.20;99.90
4187;DHT22;2107;52.306;10.484;2022-09-09T03:11:41;13.20;99.90
4187;DHT22;2107;52.306;10.484;2022-09-09T03:14:08;13.20;99.90
4187;DHT22;2107;52.306;10.484;2022-09-09T03:16:38;13.20;99.90
4187;DHT22;2107;52.306;10.484;2022-09-09T03:19:05;13.10;99.90
4187;DHT22;2107;52.306;10.484;2022-09-09T03:21:32;13.10;99.90
4187;DHT22;2107;52.306;10.484;2022-09-09T03:23:59;13.10;99.90
4187;DHT22;2107;52.306;10.484;2022-09-09T03:26:28;13.10;99.90
4187;DHT22;2107;52.306;10.484;2022-09-09T03:28:55;13.10;99.90
4187;DHT22;2107;52.306;10.484;2022-09-09T03:31:22;13.00;99.90
4187;DHT22;2107;52.306;10.484;2022-09-09T03:33:51;13.00;99.90
4187;DHT22;2107;52.306;10.484;2022-09-09T03:36:18;13.00;99.90
4187;DHT22;2107;52.306;10.484;2022-09-09T03:38:45;13.00;99.90
4187;DHT22;2107;52.306;10.484;2022-09-09T03:41:12;12.90;99.90
4187;DHT22;2107;52.306;10.484;2022-09-09T03:43:39;12.90;99.90
4187;DHT22;2107;52.306;10.484;2022-09-09T03:46:07;12.90;99.90
4187;DHT22;2107;52.306;10.484;2022-09-09T03:48:34;12.80;99.90
4187;DHT22;2107;52.306;10.484;2022-09-09T03:51:02;12.80;99.90
4187;DHT22;2107;52.306;10.484;2022-09-09T03:53:29;12.80;99.90
4187;DHT22;2107;52.306;10.484;2022-09-09T03:55:57;12.80;99.90
4187;DHT22;2107;52.306;10.484;2022-09-09T03:58:27;12.80;99.90
4187;DHT22;2107;52.306;10.484;2022-09-09T04:00:55;12.80;99.90
4187;DHT22;2107;52.306;10.484;2022-09-09T04:03:22;12.80;99.90
4187;DHT22;2107;52.306;10.484;2022-09-09T04:05:50;12.80;99.90
4187;DHT22;2107;52.306;10.484;2022-09-09T04:08:19;12.80;99.90
4187;DHT22;2107;52.306;10.484;2022-09-09T04:10:46;12.90;99.90
4187;DHT22;2107;52.306;10.484;2022-09-09T04:13:13;13.00;99.90
4187;DHT22;2107;52.306;10.484;2022-09-09T04:15:42;13.10;99.90
4187;DHT22;2107;52.306;10.484;2022-09-09T04:18:09;13.20;99.90
4187;DHT22;2107;52.306;10.484;2022-09-09T04:20:37;13.30;99.90
4187;DHT22;2107;52.306;10.484;2022-09-09T04:23:04;13.30;99.90
4187;DHT22;2107;52.306;10.484;2022-09-09T04:25:33;13.30;99.90
4187;DHT22;2107;52.306;10.484;2022-09-09T04:28:00;13.30;99.90
4187;DHT22;2107;52.306;10.484;2022-09-09T04:30:28;13.30;99.90
4187;DHT22;2107;52.306;10.484;2022-09-09T04:32:55;13.40;99.90
4187;DHT22;2107;52.306;10.484;2022-09-09T04:35:22;13.50;99.90
4187;DHT22;2107;52.306;10.484;2022-09-09T04:37:50;13.50;99.90
4187;DHT22;2107;52.306;10.484;2022-09-09T04:40:17;13.50;99.90
4187;DHT22;2107;52.306;10.484;2022-09-09T04:42:45;13.60;99.90
4187;DHT22;2107;52.306;10.484;2022-09-09T04:45:13;13.60;99.90
4187;DHT22;2107;52.306;10.484;2022-09-09T04:47:40;13.60;99.90
4187;DHT22;2107;52.306;10.484;2022-09-09T04:50:08;13.70;99.90
4187;DHT22;2107;52.306;10.484;2022-09-09T04:52:36;13.80;99.90
4187;DHT22;2107;52.306;10.484;2022-09-09T04:55:03;13.70;99.90
4187;DHT22;2107;52.306;10.484;2022-09-09T04:57:31;13.80;99.90
4187;DHT22;2107;52.306;10.484;2022-09-09T05:00:00;13.80;99.90
4187;DHT22;2107;52.306;10.484;2022-09-09T05:02:27;13.80;99.90
4187;DHT22;2107;52.306;10.484;2022-09-09T05:04:56;13.90;99.90
4187;DHT22;2107;52.306;10.484;2022-09-09T05:07:23;14.00;99.90
4187;DHT22;2107;52.306;10.484;2022-09-09T05:09:51;14.00;99.90
4187;DHT22;2107;52.306;10.484;2022-09-09T05:12:19;13.90;99.90
4187;DHT22;2107;52.306;10.484;2022-09-09T05:14:46;14.00;99.90
4187;DHT22;2107;52.306;10.484;2022-09-09T05:17:14;14.10;99.90
4187;DHT22;2107;52.306;10.484;2022-09-09T05:19:41;14.10;99.90
4187;DHT22;2107;52.306;10.484;2022-09-09T05:22:09;14.20;99.90
4187;DHT22;2107;52.306;10.484;2022-09-09T05:24:37;14.40;99.90
4187;DHT22;2107;52.306;10.484;2022-09-09T05:27:04;14.60;99.90
4187;DHT22;2107;52.306;10.484;2022-09-09T05:29:31;14.80;99.90
4187;DHT22;2107;52.306;10.484;2022-09-09T05:31:59;14.90;99.90
4187;DHT22;2107;52.306;10.484;2022-09-09T05:34:28;14.90;99.90
4187;DHT22;2107;52.306;10.484;2022-09-09T05:36:58;15.00;99.90
4187;DHT22;2107;52.306;10.484;2022-09-09T05:39:24;15.00;99.90
4187;DHT22;2107;52.306;10.484;2022-09-09T05:41:51;14.90;99.90
4187;DHT22;2107;52.306;10.484;2022-09-09T05:44:18;14.90;99.90
4187;DHT22;2107;52.306;10.484;2022-09-09T05:46:45;15.20;99.90
4187;DHT22;2107;52.306;10.484;2022-09-09T05:49:12;15.30;99.90
4187;DHT22;2107;52.306;10.484;2022-09-09T05:51:42;15.40;99.90
4187;DHT22;2107;52.306;10.484;2022-09-09T05:54:09;15.70;99.90
4187;DHT22;2107;52.306;10.484;2022-09-09T05:56:39;16.10;99.90
4187;DHT22;2107;52.306;10.484;2022-09-09T05:59:05;16.30;99.90
4187;DHT22;2107;52.306;10.484;2022-09-09T06:01:34;16.20;99.90
4187;DHT22;2107;52.306;10.484;2022-09-09T06:04:02;15.80;99.90
4187;DHT22;2107;52.306;10.484;2022-09-09T06:06:32;15.70;99.90
4187;DHT22;2107;52.306;10.484;2022-09-09T06:09:04;15.30;99.90
4187;DHT22;2107;52.306;10.484;2022-09-09T06:11:36;15.30;99.90
4187;DHT22;2107;52.306;10.484;2022-09-09T06:14:05;15.20;99.90
4187;DHT22;2107;52.306;10.484;2022-09-09T06:16:33;15.30;99.90
4187;DHT22;2107;52.306;10.484;2022-09-09T06:19:01;15.30;99.90
4187;DHT22;2107;52.306;10.484;2022-09-09T06:21:30;15.50;99.90
4187;DHT22;2107;52.306;10.484;2022-09-09T06:23:58;15.60;99.90
4187;DHT22;2107;52.306;10.484;2022-09-09T06:26:28;15.90;99.90
4187;DHT22;2107;52.306;10.484;2022-09-09T06:28:56;15.90;99.90
4187;DHT22;2107;52.306;10.484;2022-09-09T06:31:25;16.30;99.90
4187;DHT22;2107;52.306;10.484;2022-09-09T06:33:54;16.70;99.90
4187;DHT22;2107;52.306;10.484;2022-09-09T06:36:23;17.00;99.90
4187;DHT22;2107;52.306;10.484;2022-09-09T06:38:50;16.90;99.90
4187;DHT22;2107;52.306;10.484;2022-09-09T06:41:18;17.20;99.90
4187;DHT22;2107;52.306;10.484;2022-09-09T06:43:47;17.30;99.90
4187;DHT22;2107;52.306;10.484;2022-09-09T06:46:15;17.20;99.90
4187;DHT22;2107;52.306;10.484;2022-09-09T06:48:43;17.10;99.90
4187;DHT22;2107;52.306;10.484;2022-09-09T06:51:13;17.10;99.90
4187;DHT22;2107;52.306;10.484;2022-09-09T06:53:41;17.30;99.90
4187;DHT22;2107;52.306;10.484;2022-09-09T06:56:20;17.60;99.90
4187;DHT22;2107;52.306;10.484;2022-09-09T06:58:49;18.10;99.90
4187;DHT22;2107;52.306;10.484;2022-09-09T07:01:19;18.40;99.90
4187;DHT22;2107;52.306;10.484;2022-09-09T07:03:48;18.70;99.90
4187;DHT22;2107;52.306;10.484;2022-09-09T07:06:18;18.60;99.90
4187;DHT22;2107;52.306;10.484;2022-09-09T07:08:48;18.70;99.90
4187;DHT22;2107;52.306;10.484;2022-09-09T07:11:16;19.00;99.90
4187;DHT22;2107;52.306;10.484;2022-09-09T07:13:43;18.40;99.90
4187;DHT22;2107;52.306;10.484;2022-09-09T07:16:13;18.50;99.90
4187;DHT22;2107;52.306;10.484;2022-09-09T07:18:41;18.60;99.90
4187;DHT22;2107;52.306;10.484;2022-09-09T07:21:10;18.90;99.90
4187;DHT22;2107;52.306;10.484;2022-09-09T07:23:37;19.00;99.90
4187;DHT22;2107;52.306;10.484;2022-09-09T07:26:08;18.70;99.90
4187;DHT22;2107;52.306;10.484;2022-09-09T07:28:36;18.50;99.90
4187;DHT22;2107;52.306;10.484;2022-09-09T07:31:04;18.30;99.90
4187;DHT22;2107;52.306;10.484;2022-09-09T07:33:34;18.40;99.90
4187;DHT22;2107;52.306;10.484;2022-09-09T07:36:07;18.50;99.90
4187;DHT22;2107;52.306;10.484;2022-09-09T07:38:38;18.70;99.90
4187;DHT22;2107;52.306;10.484;2022-09-09T07:41:07;19.20;99.90
4187;DHT22;2107;52.306;10.484;2022-09-09T07:43:37;19.40;99.90
4187;DHT22;2107;52.306;10.484;2022-09-09T07:46:05;19.60;99.90
4187;DHT22;2107;52.306;10.484;2022-09-09T07:48:34;20.00;99.90
4187;DHT22;2107;52.306;10.484;2022-09-09T07:51:06;19.90;99.90
4187;DHT22;2107;52.306;10.484;2022-09-09T07:53:34;20.10;99.90
4187;DHT22;2107;52.306;10.484;2022-09-09T07:56:06;20.10;99.90
4187;DHT22;2107;52.306;10.484;2022-09-09T07:58:35;19.90;99.90
4187;DHT22;2107;52.306;10.484;2022-09-09T08:01:06;19.90;99.90
4187;DHT22;2107;52.306;10.484;2022-09-09T08:03:35;20.00;99.90
4187;DHT22;2107;52.306;10.484;2022-09-09T08:06:04;20.50;99.90
4187;DHT22;2107;52.306;10.484;2022-09-09T08:08:32;21.20;99.90
4187;DHT22;2107;52.306;10.484;2022-09-09T08:11:04;21.40;99.90
4187;DHT22;2107;52.306;10.484;2022-09-09T08:13:33;21.60;99.90
4187;DHT22;2107;52.306;10.484;2022-09-09T08:16:08;21.80;99.90
4187;DHT22;2107;52.306;10.484;2022-09-09T08:18:38;21.90;99.90
4187;DHT22;2107;52.306;10.484;2022-09-09T08:21:10;22.00;99.90
4187;DHT22;2107;52.306;10.484;2022-09-09T08:23:39;21.70;99.90
4187;DHT22;2107;52.306;10.484;2022-09-09T08:26:09;21.10;99.90
4187;DHT22;2107;52.306;10.484;2022-09-09T08:28:36;21.00;99.90
4187;DHT22;2107;52.306;10.484;2022-09-09T08:31:07;20.90;99.90
4187;DHT22;2107;52.306;10.484;2022-09-09T08:33:34;20.90;99.90
4187;DHT22;2107;52.306;10.484;2022-09-09T08:36:05;20.70;99.90
4187;DHT22;2107;52.306;10.484;2022-09-09T08:38:32;21.00;99.90
4187;DHT22;2107;52.306;10.484;2022-09-09T08:41:13;21.10;99.90
4187;DHT22;2107;52.306;10.484;2022-09-09T08:43:47;21.30;99.90
4187;DHT22;2107;52.306;10.484;2022-09-09T08:46:21;21.40;99.90
4187;DHT22;2107;52.306;10.484;2022-09-09T08:48:57;21.60;99.90
4187;DHT22;2107;52.306;10.484;2022-09-09T08:51:30;21.50;99.90
4187;DHT22;2107;52.306;10.484;2022-09-09T08:54:00;21.60;99.90
4187;DHT22;2107;52.306;10.484;2022-09-09T08:56:31;22.10;99.90
4187;DHT22;2107;52.306;10.484;2022-09-09T08:59:01;22.00;99.90
4187;DHT22;2107;52.306;10.484;2022-09-09T09:01:59;22.30;99.90
4187;DHT22;2107;52.306;10.484;2022-09-09T09:04:42;22.00;99.90
4187;DHT22;2107;52.306;10.484;2022-09-09T09:07:21;22.70;99.90
4187;DHT22;2107;52.306;10.484;2022-09-09T09:09:57;22.60;99.90
4187;DHT22;2107;52.306;10.484;2022-09-09T09:12:30;22.80;99.90
4187;DHT22;2107;52.306;10.484;2022-09-09T09:15:00;22.50;99.90
4187;DHT22;2107;52.306;10.484;2022-09-09T09:17:28;22.20;99.90
4187;DHT22;2107;52.306;10.484;2022-09-09T09:19:57;22.30;99.90
4187;DHT22;2107;52.306;10.484;2022-09-09T09:22:32;22.30;99.90
4187;DHT22;2107;52.306;10.484;2022-09-09T09:25:08;22.20;99.90
4187;DHT22;2107;52.306;10.484;2022-09-09T09:27:40;22.60;99.90
4187;DHT22;2107;52.306;10.484;2022-09-09T09:30:15;22.70;99.90
4187;DHT22;2107;52.306;10.484;2022-09-09T09:32:47;22.50;99.90
4187;DHT22;2107;52.306;10.484;2022-09-09T09:35:16;21.90;99.90
4187;DHT22;2107;52.306;10.484;2022-09-09T09:37:45;21.70;99.90
4187;DHT22;2107;52.306;10.484;2022-09-09T09:40:14;21.90;99.90
4187;DHT22;2107;52.306;10.484;2022-09-09T09:42:49;21.50;99.90
4187;DHT22;2107;52.306;10.484;2022-09-09T09:45:23;21.00;99.90
4187;DHT22;2107;52.306;10.484;2022-09-09T09:47:58;20.70;99.90
4187;DHT22;2107;52.306;10.484;2022-09-09T09:50:26;20.70;99.90
4187;DHT22;2107;52.306;10.484;2022-09-09T09:52:59;20.50;99.90
4187;DHT22;2107;52.306;10.484;2022-09-09T09:55:28;21.10;99.90
4187;DHT22;2107;52.306;10.484;2022-09-09T09:58:02;22.10;99.90
4187;DHT22;2107;52.306;10.484;2022-09-09T10:00:29;22.70;99.90
4187;DHT22;2107;52.306;10.484;2022-09-09T10:02:56;23.00;99.90
4187;DHT22;2107;52.306;10.484;2022-09-09T10:05:24;23.80;99.90
4187;DHT22;2107;52.306;10.484;2022-09-09T10:08:05;24.40;99.90
4187;DHT22;2107;52.306;10.484;2022-09-09T10:10:39;24.60;99.90
4187;DHT22;2107;52.306;10.484;2022-09-09T10:13:13;25.00;99.90
4187;DHT22;2107;52.306;10.484;2022-09-09T10:15:48;25.20;99.90
4187;DHT22;2107;52.306;10.484;2022-09-09T10:18:40;25.60;99.90
4187;DHT22;2107;52.306;10.484;2022-09-09T10:24:12;25.20;99.90
4187;DHT22;2107;52.306;10.484;2022-09-09T10:26:49;24.60;99.90
4187;DHT22;2107;52.306;10.484;2022-09-09T10:29:30;24.70;99.90
4187;DHT22;2107;52.306;10.484;2022-09-09T10:32:10;25.20;99.90
4187;DHT22;2107;52.306;10.484;2022-09-09T10:34:53;24.90;99.90
4187;DHT22;2107;52.306;10.484;2022-09-09T10:40:26;23.70;99.90
4187;DHT22;2107;52.306;10.484;2022-09-09T10:43:02;22.70;99.90
4187;DHT22;2107;52.306;10.484;2022-09-09T10:45:38;22.10;99.90
4187;DHT22;2107;52.306;10.484;2022-09-09T10:48:26;22.20;99.90
4187;DHT22;2107;52.306;10.484;2022-09-09T10:51:05;22.10;99.90
4187;DHT22;2107;52.306;10.484;2022-09-09T10:53:39;22.50;99.90
4187;DHT22;2107;52.306;10.484;2022-09-09T10:56:12;23.00;99.90
4187;DHT22;2107;52.306;10.484;2022-09-09T10:58:44;23.10;99.90
4187;DHT22;2107;52.306;10.484;2022-09-09T11:01:17;22.80;99.90
4187;DHT22;2107;52.306;10.484;2022-09-09T11:03:49;22.10;99.90
4187;DHT22;2107;52.306;10.484;2022-09-09T11:06:19;22.20;99.90
4187;DHT22;2107;52.306;10.484;2022-09-09T11:08:48;22.10;99.90
4187;DHT22;2107;52.306;10.484;2022-09-09T11:11:20;21.80;99.90
4187;DHT22;2107;52.306;10.484;2022-09-09T11:13:55;21.70;99.90
4187;DHT22;2107;52.306;10.484;2022-09-09T11:16:27;21.90;99.90
4187;DHT22;2107;52.306;10.484;2022-09-09T11:18:59;21.90;99.90
4187;DHT22;2107;52.306;10.484;2022-09-09T11:21:31;22.20;99.90
4187;DHT22;2107;52.306;10.484;2022-09-09T11:24:02;22.10;99.90
4187;DHT22;2107;52.306;10.484;2022-09-09T11:26:36;22.10;99.90
4187;DHT22;2107;52.306;10.484;2022-09-09T11:29:19;22.20;99.90
4187;DHT22;2107;52.306;10.484;2022-09-09T11:32:00;22.20;99.90
4187;DHT22;2107;52.306;10.484;2022-09-09T11:34:39;21.80;99.90
4187;DHT22;2107;52.306;10.484;2022-09-09T11:37:35;21.10;99.90
4187;DHT22;2107;52.306;10.484;2022-09-09T11:40:19;20.30;99.90
4187;DHT22;2107;52.306;10.484;2022-09-09T11:42:49;19.40;99.90
4187;DHT22;2107;52.306;10.484;2022-09-09T11:45:22;19.10;99.90
4187;DHT22;2107;52.306;10.484;2022-09-09T11:47:54;18.80;99.90
4187;DHT22;2107;52.306;10.484;2022-09-09T11:50:31;18.70;99.90
4187;DHT22;2107;52.306;10.484;2022-09-09T11:53:20;18.90;99.90
4187;DHT22;2107;52.306;10.484;2022-09-09T11:55:59;19.30;99.90
4187;DHT22;2107;52.306;10.484;2022-09-09T11:58:30;19.80;99.90
4187;DHT22;2107;52.306;10.484;2022-09-09T12:00:59;20.50;99.90
4187;DHT22;2107;52.306;10.484;2022-09-09T12:03:35;20.80;99.90
4187;DHT22;2107;52.306;10.484;2022-09-09T12:06:13;21.30;99.90
4187;DHT22;2107;52.306;10.484;2022-09-09T12:08:44;22.10;99.90
4187;DHT22;2107;52.306;10.484;2022-09-09T12:11:12;22.10;99.90
4187;DHT22;2107;52.306;10.484;2022-09-09T12:13:54;22.30;99.90
4187;DHT22;2107;52.306;10.484;2022-09-09T12:16:30;22.80;99.90
4187;DHT22;2107;52.306;10.484;2022-09-09T12:19:04;23.00;99.90
4187;DHT22;2107;52.306;10.484;2022-09-09T12:21:36;23.30;99.90
4187;DHT22;2107;52.306;10.484;2022-09-09T12:24:09;23.70;99.90
4187;DHT22;2107;52.306;10.484;2022-09-09T12:26:39;23.50;99.90
4187;DHT22;2107;52.306;10.484;2022-09-09T12:29:22;23.20;99.90
4187;DHT22;2107;52.306;10.484;2022-09-09T12:31:56;23.20;99.90
4187;DHT22;2107;52.306;10.484;2022-09-09T12:34:34;23.90;99.90
4187;DHT22;2107;52.306;10.484;2022-09-09T12:37:06;24.80;99.90
4187;DHT22;2107;52.306;10.484;2022-09-09T12:39:38;25.10;99.90
4187;DHT22;2107;52.306;10.484;2022-09-09T12:42:16;25.60;99.90
4187;DHT22;2107;52.306;10.484;2022-09-09T12:44:52;25.50;99.90
4187;DHT22;2107;52.306;10.484;2022-09-09T12:47:21;24.80;99.90
4187;DHT22;2107;52.306;10.484;2022-09-09T12:49:50;24.70;99.90
4187;DHT22;2107;52.306;10.484;2022-09-09T12:52:23;25.10;99.90
4187;DHT22;2107;52.306;10.484;2022-09-09T12:54:52;25.30;99.90
4187;DHT22;2107;52.306;10.484;2022-09-09T12:57:22;25.50;99.90
4187;DHT22;2107;52.306;10.484;2022-09-09T12:59:52;25.70;99.90
4187;DHT22;2107;52.306;10.484;2022-09-09T13:02:31;25.40;99.90
4187;DHT22;2107;52.306;10.484;2022-09-09T13:05:06;24.60;99.90
4187;DHT22;2107;52.306;10.484;2022-09-09T13:07:39;24.30;99.90
4187;DHT22;2107;52.306;10.484;2022-09-09T13:10:11;24.30;99.90
4187;DHT22;2107;52.306;10.484;2022-09-09T13:12:38;24.60;99.90
4187;DHT22;2107;52.306;10.484;2022-09-09T13:15:14;24.90;99.90
4187;DHT22;2107;52.306;10.484;2022-09-09T13:17:42;26.10;99.90
4187;DHT22;2107;52.306;10.484;2022-09-09T13:20:17;27.10;99.90
4187;DHT22;2107;52.306;10.484;2022-09-09T13:22:44;27.50;99.90
4187;DHT22;2107;52.306;10.484;2022-09-09T13:25:19;28.00;99.90
4187;DHT22;2107;52.306;10.484;2022-09-09T13:27:55;28.30;99.90
4187;DHT22;2107;52.306;10.484;2022-09-09T13:30:26;29.50;99.90
4187;DHT22;2107;52.306;10.484;2022-09-09T13:33:04;30.70;99.90
4187;DHT22;2107;52.306;10.484;2022-09-09T13:35:32;31.70;97.70
4187;DHT22;2107;52.306;10.484;2022-09-09T13:38:07;32.30;95.20
4187;DHT22;2107;52.306;10.484;2022-09-09T13:40:35;32.70;92.80
4187;DHT22;2107;52.306;10.484;2022-09-09T13:43:02;32.50;91.60
4187;DHT22;2107;52.306;10.484;2022-09-09T13:45:32;32.60;86.60
4187;DHT22;2107;52.306;10.484;2022-09-09T13:48:09;33.90;99.90
4187;DHT22;2107;52.306;10.484;2022-09-09T13:50:36;31.50;99.90
4187;DHT22;2107;52.306;10.484;2022-09-09T13:53:03;31.40;99.90
4187;DHT22;2107;52.306;10.484;2022-09-09T13:55:30;30.40;99.90
4187;DHT22;2107;52.306;10.484;2022-09-09T13:57:58;29.20;99.90
4187;DHT22;2107;52.306;10.484;2022-09-09T14:00:27;28.10;99.90
4187;DHT22;2107;52.306;10.484;2022-09-09T14:02:57;26.80;99.90
4187;DHT22;2107;52.306;10.484;2022-09-09T14:05:25;26.30;99.90
4187;DHT22;2107;52.306;10.484;2022-09-09T14:07:53;25.90;99.90
4187;DHT22;2107;52.306;10.484;2022-09-09T14:10:20;26.30;99.90
4187;DHT22;2107;52.306;10.484;2022-09-09T14:12:47;27.00;99.90
4187;DHT22;2107;52.306;10.484;2022-09-09T14:15:14;26.80;99.90
4187;DHT22;2107;52.306;10.484;2022-09-09T14:17:41;26.70;99.90
4187;DHT22;2107;52.306;10.484;2022-09-09T14:20:10;27.00;99.90
4187;DHT22;2107;52.306;10.484;2022-09-09T14:22:41;26.90;99.90
4187;DHT22;2107;52.306;10.484;2022-09-09T14:25:09;27.10;99.90
4187;DHT22;2107;52.306;10.484;2022-09-09T14:27:36;27.30;99.90
4187;DHT22;2107;52.306;10.484;2022-09-09T14:30:05;27.00;99.90
4187;DHT22;2107;52.306;10.484;2022-09-09T14:32:32;27.30;99.90
4187;DHT22;2107;52.306;10.484;2022-09-09T14:34:59;28.50;99.90
4187;DHT22;2107;52.306;10.484;2022-09-09T14:37:28;29.40;99.90
4187;DHT22;2107;52.306;10.484;2022-09-09T14:39:56;30.40;99.90
4187;DHT22;2107;52.306;10.484;2022-09-09T14:42:23;29.90;99.90
4187;DHT22;2107;52.306;10.484;2022-09-09T14:44:51;30.10;99.90
4187;DHT22;2107;52.306;10.484;2022-09-09T14:47:18;30.80;99.90
4187;DHT22;2107;52.306;10.484;2022-09-09T14:49:45;30.70;99.90
4187;DHT22;2107;52.306;10.484;2022-09-09T14:52:15;30.90;99.90
4187;DHT22;2107;52.306;10.484;2022-09-09T14:54:44;30.30;99.90
4187;DHT22;2107;52.306;10.484;2022-09-09T14:57:11;29.50;99.90
4187;DHT22;2107;52.306;10.484;2022-09-09T14:59:38;28.70;99.90
4187;DHT22;2107;52.306;10.484;2022-09-09T15:02:05;28.10;99.90
4187;DHT22;2107;52.306;10.484;2022-09-09T15:04:32;27.90;99.90
4187;DHT22;2107;52.306;10.484;2022-09-09T15:06:59;27.00;99.90
4187;DHT22;2107;52.306;10.484;2022-09-09T15:09:26;26.60;99.90
4187;DHT22;2107;52.306;10.484;2022-09-09T15:11:54;26.10;99.90
4187;DHT22;2107;52.306;10.484;2022-09-09T15:14:21;24.60;99.90
4187;DHT22;2107;52.306;10.484;2022-09-09T15:16:48;24.20;99.90
4187;DHT22;2107;52.306;10.484;2022-09-09T15:19:14;23.30;99.90
4187;DHT22;2107;52.306;10.484;2022-09-09T15:21:41;22.60;99.90
4187;DHT22;2107;52.306;10.484;2022-09-09T15:24:08;22.40;99.90
4187;DHT22;2107;52.306;10.484;2022-09-09T15:26:37;22.40;99.90
4187;DHT22;2107;52.306;10.484;2022-09-09T15:29:06;22.20;99.50
4187;DHT22;2107;52.306;10.484;2022-09-09T15:31:34;21.80;99.90
4187;DHT22;2107;52.306;10.484;2022-09-09T15:34:03;21.50;99.90
4187;DHT22;2107;52.306;10.484;2022-09-09T15:36:31;21.50;99.90
4187;DHT22;2107;52.306;10.484;2022-09-09T15:38:59;21.40;99.90
4187;DHT22;2107;52.306;10.484;2022-09-09T15:41:27;21.40;99.90
4187;DHT22;2107;52.306;10.484;2022-09-09T15:43:56;21.80;99.90
4187;DHT22;2107;52.306;10.484;2022-09-09T15:46:27;22.00;99.90
4187;DHT22;2107;52.306;10.484;2022-09-09T15:48:55;21.90;99.90
4187;DHT22;2107;52.306;10.484;2022-09-09T15:51:24;22.30;99.90
4187;DHT22;2107;52.306;10.484;2022-09-09T15:53:55;22.50;99.90
4187;DHT22;2107;52.306;10.484;2022-09-09T15:56:29;22.40;99.90
4187;DHT22;2107;52.306;10.484;2022-09-09T15:59:06;22.00;99.90
4187;DHT22;2107;52.306;10.484;2022-09-09T16:01:44;21.90;99.90
4187;DHT22;2107;52.306;10.484;2022-09-09T16:04:27;22.00;99.90
4187;DHT22;2107;52.306;10.484;2022-09-09T16:07:04;22.50;99.90
4187;DHT22;2107;52.306;10.484;2022-09-09T16:09:35;22.70;99.90
4187;DHT22;2107;52.306;10.484;2022-09-09T16:12:03;22.50;99.90
4187;DHT22;2107;52.306;10.484;2022-09-09T16:14:33;22.20;99.90
4187;DHT22;2107;52.306;10.484;2022-09-09T16:17:03;22.10;99.90
4187;DHT22;2107;52.306;10.484;2022-09-09T16:19:31;22.00;99.90